Craig E Philip — WDD4083 — position and weather

sailwx.info

Track history (hours):
 
Tides and Currents Weather Stations Pressure Air Temp Water Temp Dewpoint Dewpoint Depression Visibility Wind Speed Wind Dir Waves Ship Positions

Craig E Philip

Owner: Ingram Barge Company LLC, NASHVILLE, TN. More information available from US FCC via Universal Licensing System and Coast Guard Vessel Documentation Center.

Last reported at 2018-Feb-14 19:21 UTC. Time now 2018-Feb-20 17:19 UTC.
Position N 31°59' W 091°06'.

Length 61 m.

Type: Towing. MMSI: 367139970.

Date/timePositionNaut miles runAvg speedWind from/ knotsBaromVisibWave heightAir tempDewpointWater temp
2018-Feb-14 19:21N 31°59' W 091°06'3 7.8
2018-Feb-14 19:00N 32°01' W 091°04'5 7.0
2018-Feb-14 18:14N 32°06' W 091°06'1 4.9
2018-Feb-14 18:00N 32°07' W 091°07'2 3.9
2018-Feb-14 17:30N 32°08' W 091°04'3 6.7
2018-Feb-14 17:00N 32°08' W 091°00'4 7.7
2018-Feb-14 16:30N 32°12' W 090°59'4 7.7
2018-Feb-14 16:00N 32°16' W 090°58'4 7.9
2018-Feb-14 15:30N 32°19' W 090°55'3 5.4
2018-Feb-14 15:00N 32°21' W 090°56'1 1.4
2018-Feb-14 14:29N 32°21' W 090°57'0 0.1
2018-Feb-14 14:00N 32°21' W 090°57'0 0.0
2018-Feb-14 13:31N 32°21' W 090°57'0 0.1
2018-Feb-14 13:00N 32°21' W 090°57'0 0.1
2018-Feb-14 12:30N 32°21' W 090°57'0 0.0
2018-Feb-14 12:00N 32°21' W 090°57'0 0.0
2018-Feb-14 11:30N 32°21' W 090°57'0 0.0
2018-Feb-14 11:00N 32°21' W 090°57'0 0.0
2018-Feb-14 10:30N 32°21' W 090°57'0 0.0
2018-Feb-14 10:00N 32°21' W 090°57'0 0.0
2018-Feb-14 09:30N 32°21' W 090°57'0 0.0
2018-Feb-14 09:00N 32°21' W 090°57'0 0.1
2018-Feb-14 08:30N 32°21' W 090°57'3 5.2
2018-Feb-14 08:00N 32°21' W 091°00'4 6.9
2018-Feb-14 07:29N 32°25' W 090°60'4 7.7
2018-Feb-14 07:01N 32°26' W 091°04'4 7.4
2018-Feb-14 06:30N 32°29' W 091°07'4 8.3
2018-Feb-14 06:00N 32°33' W 091°06'4 7.5
2018-Feb-14 05:30N 32°36' W 091°08'  
Track history (hours):
 
Tides and Currents Weather Stations Pressure Air Temp Water Temp Dewpoint Dewpoint Depression Visibility Wind Speed Wind Dir Waves Ship Positions

Craig E Philip

Owner: Ingram Barge Company LLC, NASHVILLE, TN. More information available from US FCC via Universal Licensing System and Coast Guard Vessel Documentation Center.

Last reported at 2018-Feb-14 19:21 UTC. Time now 2018-Feb-20 17:19 UTC.
Position N 31°59' W 091°06'.

Length 61 m.

Type: Towing. MMSI: 367139970.

Date/timePositionNaut miles runAvg speedWind from/ knotsBaromVisibWave heightAir tempDewpointWater temp
2018-Feb-14 19:21N 31°59' W 091°06'3 7.8
2018-Feb-14 19:00N 32°01' W 091°04'5 7.0
2018-Feb-14 18:14N 32°06' W 091°06'1 4.9
2018-Feb-14 18:00N 32°07' W 091°07'2 3.9
2018-Feb-14 17:30N 32°08' W 091°04'3 6.7
2018-Feb-14 17:00N 32°08' W 091°00'4 7.7
2018-Feb-14 16:30N 32°12' W 090°59'4 7.7
2018-Feb-14 16:00N 32°16' W 090°58'4 7.9
2018-Feb-14 15:30N 32°19' W 090°55'3 5.4
2018-Feb-14 15:00N 32°21' W 090°56'1 1.4
2018-Feb-14 14:29N 32°21' W 090°57'0 0.1
2018-Feb-14 14:00N 32°21' W 090°57'0 0.0
2018-Feb-14 13:31N 32°21' W 090°57'0 0.1
2018-Feb-14 13:00N 32°21' W 090°57'0 0.1
2018-Feb-14 12:30N 32°21' W 090°57'0 0.0
2018-Feb-14 12:00N 32°21' W 090°57'0 0.0
2018-Feb-14 11:30N 32°21' W 090°57'0 0.0
2018-Feb-14 11:00N 32°21' W 090°57'0 0.0
2018-Feb-14 10:30N 32°21' W 090°57'0 0.0
2018-Feb-14 10:00N 32°21' W 090°57'0 0.0
2018-Feb-14 09:30N 32°21' W 090°57'0 0.0
2018-Feb-14 09:00N 32°21' W 090°57'0 0.1
2018-Feb-14 08:30N 32°21' W 090°57'3 5.2
2018-Feb-14 08:00N 32°21' W 091°00'4 6.9
2018-Feb-14 07:29N 32°25' W 090°60'4 7.7
2018-Feb-14 07:01N 32°26' W 091°04'4 7.4
2018-Feb-14 06:30N 32°29' W 091°07'4 8.3
2018-Feb-14 06:00N 32°33' W 091°06'4 7.5
2018-Feb-14 05:30N 32°36' W 091°08'  

Dump ship's entire track history